18 Jul 2018 00:55 UTC 2018199+00:55 UTC

Overview Datums Bench Marks Data Query Site Visit Daily QC Messages Attributes

042: Nueces Delta 2

27° 53' 19" N   97° 34' 10" W
NUDE2
The Coastal Bend Bays & Estuaries Program Coastal Bend Bays and Estuaries Program

Station Information

Nueces Delta 2
Nueces Delta 2
more pictures
 
Station Name:Nueces Delta 2
DNR ID:042
Location:27° 53' 19" N, 97° 34' 10" W

Water Level Forecasts

Latest Observations

Series Metric English Marine Observed at
Water Temperature 32.9 °C 91.2 °F 91.2 °F Jul 17 19:42 CDT
00h07m ago
Salinity 14.400 psu 14.400 psu 14.400 psu Jul 17 19:42 CDT
00h07m ago

Maps

Nueces Delta 2
All Stations in Area
Entire Network
 

Recent Observations

Date/Time Water
Temp (°F)
Sal (psu)
Jul 17 19:00 CDT 92.8 14.500
Jul 17 18:00 CDT 94.1 14.000
Jul 17 17:00 CDT 95.0 14.000
Jul 17 16:00 CDT 95.9 13.600
Jul 17 15:00 CDT 96.8 13.200
Jul 17 14:00 CDT 94.6 13.400
Jul 17 13:00 CDT 90.0 13.400
Jul 17 12:00 CDT 86.7 13.400
Jul 17 11:00 CDT 83.8 13.300
Jul 17 10:00 CDT 81.5 13.300
Jul 17 09:00 CDT 80.2 13.400
Jul 17 08:00 CDT 79.9 13.400
Jul 17 07:00 CDT 80.1 13.500
Jul 17 06:00 CDT 80.1 13.500
Jul 17 05:00 CDT 81.3 13.800
Jul 17 04:00 CDT 82.0 13.800
Jul 17 03:00 CDT 82.2 13.800
Jul 17 02:00 CDT 81.9 13.800
Jul 17 01:00 CDT 82.2 13.800
Jul 17 00:00 CDT 83.3 13.900
Jul 16 23:00 CDT 84.0 13.800
Jul 16 22:00 CDT 84.9 13.700
Jul 16 21:00 CDT 86.5 13.400
Jul 16 20:00 CDT 88.3 13.200
Jul 16 19:00 CDT 90.7 13.100

Historical Data Availability